Gunnison, CO (81247)

10:14 AM MST on February 10, 2016 (GMT -0700)
Gunnison County | | Change Station
CLOSE
Current Station
Airport
Location: Gunnison,
Elevation: 7674 ft
Nearby Weather Stations

Elev 7674 ft 38.53 °N, 106.93 °W | Updated 19 minutes ago

Overcast
Overcast
-8 °F
Feels Like -8 °F
N
0
Wind Variable Wind from North

Today
High -- | Low -- °F
--% Chance of Precip.
Yesterday
High -- | Low -- °F
Precip. -- in
Pressure 30.64 in
Visibility 1.8 miles
Clouds Overcast 400 ft
Dew Point -22 °F
Humidity 50%
Rainfall 0.00 in
Snow Depth Not available.
7:05 AM 5:40 PM
Waxing Crescent, 6% visible
METAR KGUC 101655Z AUTO 00000KT 1 3/4SM OVC004 M22/M30 A3064 RMK AO1
Pressure 30.64 in
Visibility 1.8 miles
Clouds Overcast 400 ft
Dew Point -22 °F
Humidity 50%
Rainfall 0.00 in
Snow Depth Not available.
7:05 AM 5:40 PM
Waxing Crescent, 6% visible
METAR KGUC 101655Z AUTO 00000KT 1 3/4SM OVC004 M22/M30 A3064 RMK AO1

10-Day Weather Forecast

Almanac

Astronomy

Feb. 10, 2016 Rise Set
Actual Time
Civil Twilight
Nautical Twilight
Astronomical Twilight
Moon
Length of Visible Light
Length of Day
Tomorrow will be .
, % of the Moon is Illuminated

Today's Extremes

State Highs State Lows

Community

WunderPhotos

Upload Photos

1,891,893 photos uploaded!

WunderBlog® & News

Nearby

Air Quality

  Air Quality AQ Index Pollutant
Not available.

Snow Depth

Station Depth Elevation

Earthquake Activity

City Distance Mag. Time & Date
Minimum magnitude displayed is 2.5.

Coastal Water Temperatures

Place Temperature

Stations

Nearby Weather Stations

Station Location Temp. Windchill Dew Point Humidity Wind Precip. Elev Updated Type
                   

Watches & Warnings

There are currently no watches in effect.